Time;durP1;ratioP1;P1;durP2;ratioP2;P2;SDS_P1;SDS_P2;PMS_P1;PMS_P2;Temp;Humidity;BMP_temperature;BMP_pressure;BME280_temperature;BME280_humidity;BME280_pressure;Samples;Min_cycle;Max_cycle;Signal;HPM_P1;HPM_P2
2022/11/06 00:01:26;;;;;;;12.13;10.18;;;;;;;20.85;48.39;100656.25;1719356;82;21175;-85
2022/11/06 00:03:53;;;;;;;12.28;9.98;;;;;;;20.86;48.39;100664.80;1721582;82;21156;-85
2022/11/06 00:09:07;;;;;;;12.93;10.18;;;;;;;20.84;48.40;100658.19;1724727;81;21033;-85
2022/11/06 00:11:33;;;;;;;15.98;10.55;;;;;;;20.85;48.39;100657.63;1716497;82;21535;-84
2022/11/06 00:14:00;;;;;;;13.80;9.85;;;;;;;20.85;48.41;100660.39;1719010;82;21164;-85
2022/11/06 00:16:27;;;;;;;14.78;10.30;;;;;;;20.84;48.42;100660.95;1724594;82;21136;-85
2022/11/06 00:18:53;;;;;;;12.58;9.30;;;;;;;20.84;48.42;100659.58;1723857;82;21163;-85
2022/11/06 00:21:23;;;;;;;14.40;10.48;;;;;;;20.85;48.45;100659.83;1712409;82;20958;-85
2022/11/06 00:23:50;;;;;;;15.43;11.22;;;;;;;20.85;48.44;100659.83;1709619;82;21146;-84
2022/11/06 00:26:19;;;;;;;14.23;9.80;;;;;;;20.85;48.46;100660.39;1713787;81;21167;-85
2022/11/06 00:28:45;;;;;;;14.07;9.95;;;;;;;20.85;48.46;100658.45;1720549;82;21991;-85
2022/11/06 00:31:14;;;;;;;14.90;9.80;;;;;;;20.85;48.47;100658.45;1719600;82;21052;-85
2022/11/06 00:33:41;;;;;;;12.05;9.93;;;;;;;20.85;48.46;100652.91;1717334;82;21186;-84
2022/11/06 00:36:11;;;;;;;14.83;10.53;;;;;;;20.85;48.48;100647.38;1719895;82;21083;-85
2022/11/06 00:38:37;;;;;;;13.70;10.20;;;;;;;20.85;48.48;100650.15;1713089;82;21048;-85
2022/11/06 00:41:12;;;;;;;14.20;10.28;;;;;;;20.85;48.48;100653.48;1719142;82;21784;-86
2022/11/06 00:43:39;;;;;;;14.73;10.78;;;;;;;20.84;48.48;100658.19;1719434;82;21170;-85
2022/11/06 00:46:08;;;;;;;13.88;10.00;;;;;;;20.85;48.48;100650.72;1716831;82;21086;-85
2022/11/06 00:48:34;;;;;;;14.50;10.63;;;;;;;20.85;48.51;100649.33;1715706;82;21964;-85
2022/11/06 00:51:13;;;;;;;15.38;10.85;;;;;;;20.84;48.49;100644.37;1716533;82;21092;-85
2022/11/06 00:53:39;;;;;;;13.45;10.65;;;;;;;20.85;48.51;100646.56;1712991;83;21132;-85
2022/11/06 00:56:09;;;;;;;13.62;10.35;;;;;;;20.84;48.52;100648.52;1718441;83;21024;-85
2022/11/06 00:58:36;;;;;;;14.43;11.05;;;;;;;20.84;48.52;100649.89;1713165;83;21630;-84
2022/11/06 01:01:12;;;;;;;14.38;10.20;;;;;;;20.83;48.52;100646.91;1711798;83;21108;-85
2022/11/06 01:03:39;;;;;;;15.53;10.40;;;;;;;20.83;48.52;100652.44;1716322;82;21041;-85
2022/11/06 01:06:10;;;;;;;12.78;9.75;;;;;;;20.83;48.53;100646.91;1715348;83;21602;-85
2022/11/06 01:08:37;;;;;;;13.00;10.18;;;;;;;20.84;48.54;100648.52;1713134;83;21540;-83
2022/11/06 01:11:12;;;;;;;15.30;10.98;;;;;;;20.83;48.54;100641.95;1718781;83;21064;-85
2022/11/06 01:13:39;;;;;;;13.18;10.95;;;;;;;20.83;48.55;100641.38;1714370;83;21440;-85
2022/11/06 01:16:07;;;;;;;15.72;10.88;;;;;;;20.84;48.56;100647.70;1710408;83;21210;-85
2022/11/06 01:18:34;;;;;;;13.05;10.53;;;;;;;20.82;48.56;100643.89;1710729;83;22039;-85
2022/11/06 01:21:13;;;;;;;14.18;10.55;;;;;;;20.83;48.56;100646.91;1718310;81;21258;-84
2022/11/06 01:23:40;;;;;;;15.30;10.28;;;;;;;20.84;48.59;100650.46;1739410;81;21060;-84
2022/11/06 01:26:07;;;;;;;14.85;9.95;;;;;;;20.83;48.57;100647.48;1733979;81;21031;-85
2022/11/06 01:28:34;;;;;;;14.25;10.25;;;;;;;20.83;48.58;100646.09;1726133;81;21036;-85
2022/11/06 01:31:05;;;;;;;13.58;10.03;;;;;;;20.83;48.60;100653.83;1719821;82;21740;-85
2022/11/06 01:33:31;;;;;;;12.68;9.93;;;;;;;20.83;48.60;100651.63;1707464;82;21026;-85
2022/11/06 01:35:57;;;;;;;14.90;10.72;;;;;;;20.82;48.60;100652.19;1694949;84;21154;-85
2022/11/06 01:38:24;;;;;;;13.68;10.60;;;;;;;20.83;48.61;100653.00;1680450;84;21615;-85
2022/11/06 01:40:50;;;;;;;18.20;11.95;;;;;;;20.83;48.62;100659.36;1684470;84;21144;-85
2022/11/06 01:43:23;;;;;;;15.85;10.95;;;;;;;20.82;48.62;100664.63;1682939;84;21819;-85
2022/11/06 01:45:54;;;;;;;14.75;10.75;;;;;;;20.83;48.64;100659.36;1716772;82;21199;-85
2022/11/06 01:48:25;;;;;;;14.65;10.65;;;;;;;20.83;48.66;100662.69;1722995;82;21128;-84
2022/11/06 01:50:55;;;;;;;15.53;10.72;;;;;;;20.82;48.65;100656.90;1719232;81;21211;-84
2022/11/06 01:53:22;;;;;;;15.03;10.20;;;;;;;20.82;48.63;100663.81;1717611;82;21017;-84
2022/11/06 01:55:51;;;;;;;15.15;11.30;;;;;;;20.83;48.64;100659.92;1713721;82;21134;-84
2022/11/06 01:58:19;;;;;;;14.78;10.82;;;;;;;20.82;48.63;100656.34;1725009;82;21569;-84
2022/11/06 02:00:46;;;;;;;15.25;11.05;;;;;;;20.82;48.64;100654.95;1720238;82;21107;-85
2022/11/06 02:03:12;;;;;;;15.20;10.82;;;;;;;20.82;48.67;100653.57;1716331;81;21577;-84
2022/11/06 02:05:39;;;;;;;15.70;10.98;;;;;;;20.82;48.67;100655.52;1713072;81;21067;-85
2022/11/06 02:08:08;;;;;;;15.90;10.98;;;;;;;20.81;48.70;100657.47;1715941;82;21238;-84
2022/11/06 02:10:34;;;;;;;15.50;10.50;;;;;;;20.81;48.69;100667.14;1719460;82;21178;-84
2022/11/06 02:13:56;;;;;;;14.33;10.65;;;;;;;20.80;48.70;100662.74;1672786;83;34981;-84
2022/11/06 02:16:52;;;;;;;14.55;10.88;;;;;;;20.81;48.69;100663.00;1712471;82;21040;-84
2022/11/06 02:19:57;;;;;;;12.88;10.28;;;;;;;20.80;48.69;100666.89;1711068;82;21285;-84
2022/11/06 02:23:03;;;;;;;13.75;10.23;;;;;;;20.80;48.68;100666.89;1714221;81;21180;-84
2022/11/06 02:25:47;;;;;;;13.88;10.65;;;;;;;20.79;48.67;100669.41;1716655;82;21100;-84
2022/11/06 02:28:27;;;;;;;14.45;10.23;;;;;;;20.77;48.66;100671.69;1679453;83;21642;-84
2022/11/06 02:30:54;;;;;;;15.38;10.75;;;;;;;20.77;48.70;100678.60;1704086;82;21608;-85
2022/11/06 02:33:25;;;;;;;14.87;11.22;;;;;;;20.76;48.69;100674.20;1712591;82;21107;-85
2022/11/06 02:35:56;;;;;;;15.18;11.30;;;;;;;20.77;48.73;100687.46;1706120;83;20981;-84
2022/11/06 02:38:32;;;;;;;15.95;11.35;;;;;;;20.76;48.75;100683.88;1712355;82;21072;-84
2022/11/06 02:41:03;;;;;;;12.85;10.40;;;;;;;20.77;48.74;100683.31;1681612;83;21095;-84
2022/11/06 02:43:38;;;;;;;16.75;11.05;;;;;;;20.77;48.77;100691.61;1724054;81;21163;-84
2022/11/06 02:46:12;;;;;;;13.68;10.78;;;;;;;20.76;48.76;100692.17;1729026;82;21031;-84
2022/11/06 02:48:46;;;;;;;14.73;11.03;;;;;;;20.78;48.78;100696.01;1730182;82;21177;-84
2022/11/06 02:51:16;;;;;;;14.15;10.40;;;;;;;20.77;48.78;100688.84;1734985;81;21230;-85
2022/11/06 02:53:43;;;;;;;13.62;10.32;;;;;;;20.77;48.79;100692.98;1727011;82;21043;-85
2022/11/06 02:56:13;;;;;;;13.62;10.30;;;;;;;20.77;48.81;100687.46;1721503;82;21578;-84
2022/11/06 02:58:59;;;;;;;13.40;10.25;;;;;;;20.76;48.80;100700.47;1729647;82;21523;-84
2022/11/06 03:01:30;;;;;;;16.48;10.48;;;;;;;20.77;48.81;100701.28;1731032;82;21173;-84
2022/11/06 03:04:06;;;;;;;11.85;9.68;;;;;;;20.76;48.81;100707.38;1724668;82;21506;-84
2022/11/06 03:06:37;;;;;;;15.23;10.30;;;;;;;20.77;48.82;100715.11;1726143;82;21028;-85
2022/11/06 03:09:14;;;;;;;13.80;10.32;;;;;;;20.77;48.83;100717.88;1728149;82;26586;-84
2022/11/06 03:11:41;;;;;;;14.65;10.90;;;;;;;20.76;48.83;100717.62;1728841;82;21047;-84
2022/11/06 03:14:33;;;;;;;13.95;10.20;;;;;;;20.77;48.83;100722.84;1717929;82;21583;-84
2022/11/06 03:17:19;;;;;;;14.55;10.65;;;;;;;20.76;48.83;100722.59;1720333;82;21077;-84
2022/11/06 03:19:55;;;;;;;15.65;10.78;;;;;;;20.77;48.83;100718.69;1725208;82;21550;-84
2022/11/06 03:22:32;;;;;;;12.78;10.10;;;;;;;20.76;48.82;100716.23;1729370;80;21091;-84
2022/11/06 03:25:22;;;;;;;13.93;9.65;;;;;;;20.75;48.84;100708.51;1732743;81;21059;-84
2022/11/06 03:28:06;;;;;;;15.10;10.17;;;;;;;20.76;48.83;100711.53;1734559;81;21125;-84
2022/11/06 03:30:35;;;;;;;13.40;10.38;;;;;;;20.75;48.83;100710.48;1698501;82;21789;-84
2022/11/06 03:33:30;;;;;;;13.62;10.48;;;;;;;20.75;48.86;100720.16;1726654;82;21048;-84
2022/11/06 03:36:11;;;;;;;12.33;9.73;;;;;;;20.75;48.86;100712.66;1722379;81;21562;-85
2022/11/06 03:38:40;;;;;;;13.40;9.53;;;;;;;20.75;48.86;100714.63;1717450;82;21136;-85
2022/11/06 03:41:15;;;;;;;14.78;9.90;;;;;;;20.74;48.87;100720.73;1723863;82;21035;-84
2022/11/06 03:43:42;;;;;;;16.42;10.72;;;;;;;20.74;48.89;100712.99;1723107;82;21017;-84
2022/11/06 03:46:15;;;;;;;12.82;10.08;;;;;;;20.74;48.89;100713.81;1718442;82;21547;-84
2022/11/06 03:48:54;;;;;;;12.30;9.83;;;;;;;20.75;48.89;100714.63;1722149;82;21073;-84
2022/11/06 03:51:34;;;;;;;16.35;9.68;;;;;;;20.74;48.91;100712.99;1719788;82;21087;-84
2022/11/06 03:54:08;;;;;;;11.53;9.73;;;;;;;20.74;48.90;100713.81;1717380;81;21424;-84
2022/11/06 03:56:42;;;;;;;14.70;9.78;;;;;;;20.74;48.90;100709.66;1712630;82;21124;-84
2022/11/06 03:59:08;;;;;;;15.08;11.12;;;;;;;20.74;48.90;100713.81;1708451;83;21116;-84
2022/11/06 04:01:41;;;;;;;13.13;10.15;;;;;;;20.74;48.91;100714.38;1710859;83;21100;-84
2022/11/06 04:04:33;;;;;;;14.60;10.63;;;;;;;20.74;48.91;100723.48;1711625;83;21580;-84
2022/11/06 04:07:07;;;;;;;13.10;10.05;;;;;;;20.75;48.94;100722.92;1708922;83;21833;-84
2022/11/06 04:15:09;;;;;;;12.18;9.60;;;;;;;20.73;48.90;100718.27;1709999;82;21045;-85
2022/11/06 04:17:35;;;;;;;15.80;10.00;;;;;;;20.73;48.92;100715.50;1704608;83;21226;-84
2022/11/06 04:20:04;;;;;;;14.63;10.30;;;;;;;20.73;48.92;100714.13;1722495;81;21179;-84
2022/11/06 04:22:45;;;;;;;13.70;9.90;;;;;;;20.74;48.92;100721.29;1716969;81;21071;-84
2022/11/06 04:28:31;;;;;;;13.30;9.95;;;;;;;20.73;48.92;100727.38;1723208;81;21075;-85
2022/11/06 04:31:03;;;;;;;14.10;9.68;;;;;;;20.72;48.92;100721.59;1721289;81;21618;-84
2022/11/06 04:34:10;;;;;;;16.80;10.20;;;;;;;20.72;48.92;100716.63;1718687;82;21642;-84
2022/11/06 04:37:06;;;;;;;18.02;9.75;;;;;;;20.72;48.95;100727.69;1718703;82;21489;-85
2022/11/06 04:40:10;;;;;;;13.45;9.38;;;;;;;20.72;48.92;100715.25;1720561;81;22063;-84
2022/11/06 04:42:53;;;;;;;15.28;9.78;;;;;;;20.71;48.93;100721.94;1670135;82;21567;-85
2022/11/06 04:45:36;;;;;;;11.38;9.48;;;;;;;20.70;48.95;100729.41;1722073;82;21108;-85
2022/11/06 04:48:03;;;;;;;11.70;9.88;;;;;;;20.69;48.96;100725.02;1721554;82;21080;-85
2022/11/06 04:50:31;;;;;;;13.38;10.32;;;;;;;20.69;48.98;100720.05;1725759;81;21044;-84
2022/11/06 04:55:23;;;;;;;11.88;9.68;;;;;;;20.69;49.03;100729.16;1700112;81;20943;-85
2022/11/06 04:57:50;;;;;;;14.10;10.15;;;;;;;20.70;49.03;100731.36;1728688;81;21075;-84
2022/11/06 05:00:17;;;;;;;14.93;9.38;;;;;;;20.71;49.04;100732.41;1684696;82;21807;-85
2022/11/06 05:02:43;;;;;;;12.45;8.78;;;;;;;20.70;49.04;100729.41;1723075;82;20997;-86
2022/11/06 05:05:09;;;;;;;12.78;10.03;;;;;;;20.72;49.04;100729.07;1730209;82;21119;-86
2022/11/06 05:07:36;;;;;;;12.23;9.55;;;;;;;20.71;49.05;100727.47;1716414;82;21089;-86
2022/11/06 05:10:03;;;;;;;13.13;9.63;;;;;;;20.71;49.05;100733.78;1711336;83;21119;-85
2022/11/06 05:12:30;;;;;;;13.90;9.98;;;;;;;20.70;49.04;100726.65;1713974;83;22012;-85
2022/11/06 05:14:56;;;;;;;13.32;9.03;;;;;;;20.71;49.04;100726.88;1714294;83;21037;-85
2022/11/06 05:19:48;;;;;;;14.55;9.65;;;;;;;20.72;49.04;100743.72;1730195;82;20889;-84
2022/11/06 05:24:59;;;;;;;15.68;9.63;;;;;;;20.73;49.05;100752.83;1733312;81;21993;-84
2022/11/06 05:29:51;;;;;;;13.83;9.93;;;;;;;20.71;49.04;100753.14;1698696;82;20889;-85
2022/11/06 05:32:18;;;;;;;11.97;9.18;;;;;;;20.72;49.05;100766.39;1732351;82;20988;-84
2022/11/06 05:34:45;;;;;;;11.30;9.38;;;;;;;20.72;49.08;100767.22;1734173;82;21235;-85
2022/11/06 05:37:18;;;;;;;13.72;9.23;;;;;;;20.72;49.05;100771.36;1728175;81;21248;-84
2022/11/06 05:39:44;;;;;;;12.47;9.53;;;;;;;20.72;49.05;100774.12;1729577;82;21056;-85
2022/11/06 05:42:10;;;;;;;11.12;9.25;;;;;;;20.72;49.05;100774.69;1731935;82;21651;-84
2022/11/06 05:44:37;;;;;;;12.75;9.58;;;;;;;20.72;49.04;100787.95;1700741;81;21025;-84
2022/11/06 05:47:03;;;;;;;13.30;8.63;;;;;;;20.72;49.07;100785.75;1689166;84;21075;-84
2022/11/06 05:49:29;;;;;;;11.97;8.40;;;;;;;20.73;49.07;100788.20;1708843;81;21169;-84
2022/11/06 05:51:56;;;;;;;13.05;8.90;;;;;;;20.72;49.05;100783.80;1708028;81;21327;-85
2022/11/06 05:54:22;;;;;;;13.10;9.40;;;;;;;20.72;49.08;100792.09;1718274;81;21047;-84
2022/11/06 05:56:48;;;;;;;12.63;9.40;;;;;;;20.72;49.09;100790.72;1712395;81;21092;-84
2022/11/06 05:59:15;;;;;;;14.95;8.90;;;;;;;20.72;49.06;100800.39;1723804;81;21448;-84
2022/11/06 06:01:47;;;;;;;13.65;9.38;;;;;;;20.73;49.08;100799.83;1703269;82;21225;-84
2022/11/06 06:04:13;;;;;;;11.65;9.38;;;;;;;20.72;49.08;100804.54;1696908;82;21112;-84
2022/11/06 06:06:39;;;;;;;11.50;8.85;;;;;;;20.73;49.08;100798.45;1715153;81;21511;-84
2022/11/06 06:09:06;;;;;;;13.28;8.63;;;;;;;20.71;49.07;100806.26;1699515;82;21099;-84
2022/11/06 06:11:32;;;;;;;12.40;8.98;;;;;;;20.72;49.10;100810.63;1725283;81;21116;-83
2022/11/06 06:13:59;;;;;;;15.68;9.13;;;;;;;20.72;49.10;100810.63;1722317;81;21172;-84
2022/11/06 06:16:25;;;;;;;13.30;9.05;;;;;;;20.72;49.09;100816.98;1722901;81;21699;-84
2022/11/06 06:18:52;;;;;;;12.98;9.20;;;;;;;20.72;49.11;100820.31;1713192;81;21061;-83
2022/11/06 06:21:18;;;;;;;12.00;8.70;;;;;;;20.71;49.10;100820.88;1715582;81;21614;-84
2022/11/06 06:23:44;;;;;;;13.38;8.73;;;;;;;20.73;49.11;100826.09;1724116;81;20909;-84
2022/11/06 06:26:10;;;;;;;11.63;8.63;;;;;;;20.71;49.12;100836.08;1711222;81;21840;-83
2022/11/06 06:28:36;;;;;;;11.70;8.68;;;;;;;20.71;49.12;100840.22;1716277;81;21045;-83
2022/11/06 06:31:04;;;;;;;11.03;8.13;;;;;;;20.72;49.12;100841.86;1725529;82;21008;-84
2022/11/06 06:33:31;;;;;;;9.85;8.23;;;;;;;20.71;49.12;100847.13;1726649;82;21111;-84
2022/11/06 06:35:57;;;;;;;13.15;8.65;;;;;;;20.72;49.13;100850.72;1726121;82;21040;-84
2022/11/06 06:38:24;;;;;;;12.23;8.40;;;;;;;20.71;49.16;100851.28;1700730;83;21184;-83
2022/11/06 06:40:52;;;;;;;9.28;8.13;;;;;;;20.71;49.14;100854.05;1726918;82;20964;-83
2022/11/06 06:43:19;;;;;;;10.53;8.40;;;;;;;20.71;49.13;100851.28;1723967;83;21084;-84
2022/11/06 06:45:45;;;;;;;12.07;8.93;;;;;;;20.71;49.14;100844.97;1724831;83;21510;-84
2022/11/06 06:48:11;;;;;;;11.78;8.65;;;;;;;20.70;49.16;100848.30;1725513;83;21705;-83
2022/11/06 06:50:38;;;;;;;11.20;8.28;;;;;;;20.70;49.17;100844.70;1726849;82;21797;-85
2022/11/06 06:53:04;;;;;;;11.75;8.55;;;;;;;20.71;49.17;100853.26;1701490;83;21099;-84
2022/11/06 06:55:30;;;;;;;11.30;8.28;;;;;;;20.70;49.15;100854.38;1724257;82;21056;-83
2022/11/06 06:57:58;;;;;;;11.55;8.18;;;;;;;20.71;49.17;100860.95;1691598;82;21096;-84
2022/11/06 07:00:25;;;;;;;11.48;8.68;;;;;;;20.70;49.17;100853.83;1717423;82;21168;-84
2022/11/06 07:02:51;;;;;;;12.43;8.88;;;;;;;20.70;49.18;100852.44;1705082;82;21562;-84
2022/11/06 07:05:18;;;;;;;12.05;8.43;;;;;;;20.70;49.19;100851.63;1717237;82;21076;-84
2022/11/06 07:07:44;;;;;;;11.90;8.33;;;;;;;20.70;49.20;100857.97;1716452;83;21051;-84
2022/11/06 07:10:10;;;;;;;11.68;7.87;;;;;;;20.70;49.20;100848.86;1713780;83;21065;-84
2022/11/06 07:12:36;;;;;;;14.20;7.78;;;;;;;20.70;49.20;100857.97;1701063;83;21185;-84
2022/11/06 07:15:03;;;;;;;11.90;7.65;;;;;;;20.71;49.19;100861.55;1688169;83;21177;-84
2022/11/06 07:17:30;;;;;;;10.70;8.15;;;;;;;20.70;49.21;100858.53;1712294;82;21079;-84
2022/11/06 07:19:56;;;;;;;11.95;8.30;;;;;;;20.70;49.23;100860.73;1712026;82;21052;-84
2022/11/06 07:22:27;;;;;;;12.30;8.70;;;;;;;20.69;49.22;100859.66;1690504;82;21075;-84
2022/11/06 07:25:00;;;;;;;10.32;8.08;;;;;;;20.70;49.20;100862.68;1688734;83;21140;-84
2022/11/06 07:27:27;;;;;;;12.40;7.97;;;;;;;20.70;49.25;100862.68;1704695;81;21231;-83
2022/11/06 07:29:54;;;;;;;12.18;8.60;;;;;;;20.69;49.22;100866.01;1711962;81;21030;-84
2022/11/06 07:32:20;;;;;;;12.03;8.18;;;;;;;20.70;49.22;100865.44;1704993;81;21099;-84
2022/11/06 07:34:47;;;;;;;10.50;7.90;;;;;;;20.69;49.21;100870.16;1719264;82;21151;-84
2022/11/06 07:37:19;;;;;;;10.35;7.78;;;;;;;20.69;49.25;100861.04;1714133;82;21530;-84
2022/11/06 07:39:45;;;;;;;11.43;8.00;;;;;;;20.70;49.24;100862.68;1722364;82;21828;-83
2022/11/06 07:42:12;;;;;;;11.10;8.20;;;;;;;20.70;49.25;100873.17;1714370;82;21548;-84
2022/11/06 07:44:38;;;;;;;12.60;8.60;;;;;;;20.68;49.22;100868.52;1719598;82;21146;-84
2022/11/06 07:47:05;;;;;;;10.38;7.70;;;;;;;20.70;49.25;100875.13;1720652;82;21024;-84
2022/11/06 07:49:31;;;;;;;12.70;8.25;;;;;;;20.69;49.28;100879.01;1715752;82;21065;-84
2022/11/06 07:51:57;;;;;;;10.35;7.37;;;;;;;20.69;49.28;100874.86;1716150;82;21122;-84
2022/11/06 07:54:24;;;;;;;11.75;8.45;;;;;;;20.69;49.26;100872.09;1716016;82;21021;-84
2022/11/06 07:56:50;;;;;;;11.50;8.38;;;;;;;20.69;49.28;100881.21;1712362;82;21089;-84
2022/11/06 07:59:17;;;;;;;11.33;7.55;;;;;;;20.68;49.29;100886.48;1704376;83;21124;-83
2022/11/06 08:01:43;;;;;;;11.25;7.70;;;;;;;20.69;49.28;100892.27;1713431;82;21076;-84
2022/11/06 08:04:10;;;;;;;10.75;7.78;;;;;;;20.68;49.29;100894.78;1710007;83;21025;-83
2022/11/06 08:06:36;;;;;;;11.88;8.48;;;;;;;20.68;49.29;100898.92;1712505;83;21589;-84
2022/11/06 08:09:07;;;;;;;10.45;7.92;;;;;;;20.69;49.31;100898.36;1687237;83;21554;-83
2022/11/06 08:11:33;;;;;;;13.03;8.33;;;;;;;20.68;49.30;100897.54;1717819;82;21124;-84
2022/11/06 08:14:00;;;;;;;12.23;7.67;;;;;;;20.68;49.32;100893.39;1719169;82;21271;-83
2022/11/06 08:16:26;;;;;;;10.53;7.90;;;;;;;20.68;49.32;100901.69;1724326;82;21473;-84
2022/11/06 08:21:18;;;;;;;11.48;8.00;;;;;;;20.68;49.34;100892.58;1708236;82;21052;-84
2022/11/06 08:23:45;;;;;;;9.93;7.80;;;;;;;20.68;49.34;100900.30;1721688;82;21067;-83
2022/11/06 08:26:11;;;;;;;11.10;8.08;;;;;;;20.67;49.34;100906.96;1714903;82;21597;-84
2022/11/06 08:28:37;;;;;;;11.57;8.05;;;;;;;20.68;49.35;100909.16;1706075;82;21170;-84
2022/11/06 08:31:06;;;;;;;12.68;7.33;;;;;;;20.67;49.34;100912.48;1715956;82;21139;-84
2022/11/06 08:33:33;;;;;;;11.33;7.70;;;;;;;20.66;49.35;100909.50;1710615;82;21059;-83
2022/11/06 08:36:04;;;;;;;13.15;8.93;;;;;;;20.68;49.34;100911.93;1713205;82;21175;-84
2022/11/06 08:38:30;;;;;;;10.60;7.97;;;;;;;20.67;49.35;100911.11;1712431;81;21147;-84
2022/11/06 08:40:56;;;;;;;11.65;7.55;;;;;;;20.67;49.36;100914.44;1721031;81;21082;-84
2022/11/06 08:43:26;;;;;;;13.08;8.48;;;;;;;20.67;49.37;100919.40;1710438;81;21028;-84
2022/11/06 08:45:52;;;;;;;10.50;7.85;;;;;;;20.67;49.37;100924.11;1721047;81;21650;-85
2022/11/06 08:48:19;;;;;;;11.12;7.80;;;;;;;20.67;49.36;100920.78;1722651;82;21037;-84
2022/11/06 08:50:45;;;;;;;10.10;7.30;;;;;;;20.67;49.37;100924.11;1724969;81;21161;-84
2022/11/06 08:53:11;;;;;;;11.78;7.95;;;;;;;20.68;49.37;100925.19;1723343;82;21096;-85
2022/11/06 08:55:38;;;;;;;11.45;7.22;;;;;;;20.67;49.37;100925.49;1700661;82;21040;-84
2022/11/06 08:58:05;;;;;;;12.88;8.20;;;;;;;20.65;49.37;100923.06;1723943;82;21045;-84
2022/11/06 09:00:31;;;;;;;9.83;7.08;;;;;;;20.66;49.38;100916.97;1725786;81;21226;-84
2022/11/06 09:03:06;;;;;;;10.10;7.20;;;;;;;20.66;49.37;100929.41;1725736;82;21043;-84
2022/11/06 09:05:32;;;;;;;9.33;7.45;;;;;;;20.66;49.40;100926.09;1726034;82;21648;-84
2022/11/06 09:07:59;;;;;;;12.03;8.10;;;;;;;20.67;49.38;100919.97;1725882;81;21206;-84
2022/11/06 09:10:25;;;;;;;11.10;7.75;;;;;;;20.65;49.38;100923.62;1725337;83;21088;-84
2022/11/06 09:15:21;;;;;;;9.40;6.87;;;;;;;20.66;49.38;100926.65;1726197;83;21068;-84
2022/11/06 09:17:49;;;;;;;11.30;7.50;;;;;;;20.67;49.40;100928.26;1722021;82;21108;-84
2022/11/06 09:22:49;;;;;;;9.45;7.33;;;;;;;20.65;49.39;100921.68;1717967;82;21080;-83
2022/11/06 09:25:16;;;;;;;12.33;7.28;;;;;;;20.66;49.41;100926.65;1710910;82;21084;-84
2022/11/06 09:27:49;;;;;;;9.35;7.20;;;;;;;20.67;49.38;100928.26;1710794;83;21626;-84
2022/11/06 09:30:17;;;;;;;11.08;7.67;;;;;;;20.66;49.41;100926.09;1710578;83;21238;-83
2022/11/06 09:32:50;;;;;;;9.55;7.05;;;;;;;20.67;49.41;100922.16;1709754;83;21017;-84
2022/11/06 09:35:17;;;;;;;11.00;7.47;;;;;;;20.65;49.38;100921.68;1711031;83;21623;-84
2022/11/06 09:37:43;;;;;;;11.45;7.65;;;;;;;20.65;49.38;100920.30;1698906;83;21140;-84
2022/11/06 09:41:00;;;;;;;11.45;7.22;;;;;;;20.66;49.41;100921.94;1705588;83;21495;-84
2022/11/06 09:44:05;;;;;;;9.98;7.00;;;;;;;20.66;49.41;100916.97;1689278;83;21331;-85
2022/11/06 09:46:43;;;;;;;11.60;7.08;;;;;;;20.64;49.39;100914.52;1709409;83;21511;-84
2022/11/06 09:49:35;;;;;;;9.38;6.85;;;;;;;20.64;49.38;100910.36;1693805;83;21030;-85
2022/11/06 09:52:30;;;;;;;12.28;7.65;;;;;;;20.64;49.37;100913.69;1708879;83;21101;-85
2022/11/06 09:55:03;;;;;;;8.83;7.00;;;;;;;20.63;49.39;100907.91;1707580;83;21067;-84
2022/11/06 09:59:55;;;;;;;10.28;6.78;;;;;;;20.63;49.42;100914.25;1705820;81;20988;-85
2022/11/06 10:02:38;;;;;;;9.55;7.37;;;;;;;20.63;49.44;100910.11;1715817;81;21077;-85
2022/11/06 10:05:26;;;;;;;9.33;7.00;;;;;;;20.63;49.45;100903.76;1718979;81;21082;-84
2022/11/06 10:08:04;;;;;;;8.78;6.85;;;;;;;20.63;49.45;100905.14;1712442;81;21659;-85
2022/11/06 10:10:38;;;;;;;8.03;6.72;;;;;;;20.64;49.43;100906.78;1708911;81;21666;-86
2022/11/06 10:13:31;;;;;;;9.43;7.20;;;;;;;20.63;49.44;100910.11;1688880;81;21064;-85
2022/11/06 10:16:29;;;;;;;9.25;6.78;;;;;;;20.63;49.45;100910.67;1702692;81;21403;-85
2022/11/06 10:19:17;;;;;;;11.00;7.10;;;;;;;20.63;49.46;100912.05;1711626;81;21091;-85
2022/11/06 10:21:50;;;;;;;11.60;7.67;;;;;;;20.63;49.45;100911.48;1717116;81;21068;-85
2022/11/06 10:24:44;;;;;;;10.68;6.42;;;;;;;20.63;49.45;100914.81;1711457;81;21189;-85
2022/11/06 10:27:17;;;;;;;10.25;7.62;;;;;;;20.62;49.47;100909.88;1712244;81;21139;-85
2022/11/06 10:30:05;;;;;;;11.53;7.25;;;;;;;20.62;49.47;100904.91;1718938;82;21250;-84
2022/11/06 10:33:12;;;;;;;12.75;7.40;;;;;;;20.61;49.48;100905.48;1712792;82;21110;-85
2022/11/06 10:35:50;;;;;;;;;;;;;;;20.62;49.50;100901.59;1723191;81;21044;-84
2022/11/06 10:38:16;;;;;;;;;;;;;;;20.61;49.52;100905.48;1715399;82;21191;-85
2022/11/06 10:40:43;;;;;;;9.50;6.75;;;;;;;20.59;49.53;100899.43;1690597;83;20086;-84
2022/11/06 10:43:51;;;;;;;9.55;7.05;;;;;;;20.59;49.48;100893.90;1696219;83;21558;-85
2022/11/06 10:46:40;;;;;;;9.30;7.17;;;;;;;20.59;49.51;100898.61;1684987;83;21520;-85
2022/11/06 10:49:24;;;;;;;9.93;7.42;;;;;;;20.59;49.50;100888.37;1679248;83;21727;-85
2022/11/06 10:52:14;;;;;;;10.40;7.05;;;;;;;20.59;49.50;100888.94;1633304;83;21159;-85
2022/11/06 10:55:21;;;;;;;9.97;6.97;;;;;;;20.58;49.51;100881.20;1679102;83;20981;-84
2022/11/06 10:58:04;;;;;;;9.70;7.17;;;;;;;20.59;49.53;100884.79;1691018;83;21084;-84
2022/11/06 11:00:34;;;;;;;11.55;7.03;;;;;;;20.60;49.53;100880.34;1657900;85;21108;-85
2022/11/06 11:03:01;;;;;;;7.92;6.87;;;;;;;20.59;49.54;100880.64;1684584;83;21586;-84
2022/11/06 11:05:43;;;;;;;9.05;6.80;;;;;;;20.59;49.55;100875.94;1688924;83;21181;-83
2022/11/06 11:08:38;;;;;;;10.88;7.03;;;;;;;20.60;49.58;100876.19;1681135;83;21581;-84
2022/11/06 11:11:16;;;;;;;9.10;6.97;;;;;;;20.60;49.56;100867.90;1675176;84;21686;-84
2022/11/06 11:13:49;;;;;;;8.23;6.83;;;;;;;20.60;49.58;100870.66;1648974;84;21576;-84
2022/11/06 11:16:22;;;;;;;11.40;7.37;;;;;;;20.61;49.58;100871.48;1644462;85;21168;-85
2022/11/06 11:18:49;;;;;;;9.30;6.53;;;;;;;20.61;49.58;100866.78;1661416;84;21192;-83
2022/11/06 11:21:27;;;;;;;8.63;7.08;;;;;;;20.61;49.59;100865.95;1680362;82;21508;-84
2022/11/06 11:24:15;;;;;;;8.63;6.40;;;;;;;20.62;49.59;100865.66;1695983;83;21232;-84
2022/11/06 11:26:47;;;;;;;9.25;6.90;;;;;;;20.62;49.59;100861.50;1715000;83;21030;-84
2022/11/06 11:29:19;;;;;;;10.18;7.12;;;;;;;20.63;49.58;100857.59;1713713;83;21044;-84
2022/11/06 11:31:49;;;;;;;11.57;7.40;;;;;;;20.64;49.58;100855.08;1701369;83;21514;-84
2022/11/06 11:34:23;;;;;;;11.18;7.10;;;;;;;20.64;49.57;100851.49;1711397;83;21341;-83
2022/11/06 11:37:04;;;;;;;10.43;7.35;;;;;;;20.65;49.57;100853.13;1707361;83;21062;-84
2022/11/06 11:39:41;;;;;;;9.23;6.90;;;;;;;20.65;49.58;100856.72;1710347;83;21496;-84
2022/11/06 11:42:27;;;;;;;7.83;6.90;;;;;;;20.65;49.57;100855.89;1722546;83;21036;-83
2022/11/06 11:45:17;;;;;;;10.30;7.03;;;;;;;20.65;49.57;100860.86;1696569;82;21334;-84
2022/11/06 11:47:50;;;;;;;10.08;6.83;;;;;;;20.65;49.55;100848.42;1705329;83;21080;-84
2022/11/06 11:50:29;;;;;;;8.70;6.67;;;;;;;20.65;49.56;100858.09;1703925;83;21064;-84
2022/11/06 11:53:06;;;;;;;8.38;6.55;;;;;;;20.65;49.53;100858.09;1726284;82;21091;-84
2022/11/06 11:55:44;;;;;;;9.60;6.97;;;;;;;20.65;49.54;100851.75;1697413;82;21124;-84
2022/11/06 11:58:26;;;;;;;12.20;7.22;;;;;;;20.65;49.55;100853.95;1725344;82;21211;-84
2022/11/06 12:00:57;;;;;;;9.88;6.97;;;;;;;20.67;49.55;100855.81;1725012;82;21116;-84
2022/11/06 12:03:27;;;;;;;;;;;;;;;20.66;49.57;100856.16;1726723;82;21037;-84
2022/11/06 12:05:53;;;;;;;10.63;7.05;;;;;;;20.64;49.59;100855.08;1721961;82;20216;-84
2022/11/06 12:08:24;;;;;;;9.35;6.90;;;;;;;20.64;49.54;100852.88;1724722;82;21546;-84
2022/11/06 12:10:50;;;;;;;10.03;6.60;;;;;;;20.64;49.57;100857.84;1713943;83;21905;-84
2022/11/06 12:13:20;;;;;;;8.00;6.35;;;;;;;20.65;49.54;100847.60;1722849;82;21036;-84